Time;durP1;ratioP1;P1;durP2;ratioP2;P2;SDS_P1;SDS_P2;PMS_P1;PMS_P2;Temp;Humidity;BMP_temperature;BMP_pressure;BME280_temperature;BME280_humidity;BME280_pressure;Samples;Min_cycle;Max_cycle;Signal;HPM_P1;HPM_P2
2022/02/26 00:02:16;;;;;;;30.63;16.53;;;2.40;99.90;;;;;;5121546;28;20982;-80
2022/02/26 00:04:45;;;;;;;36.53;16.60;;;2.50;99.90;;;;;;5121260;28;21294;-79
2022/02/26 00:07:14;;;;;;;27.87;15.90;;;2.40;99.90;;;;;;5121724;28;20512;-79
2022/02/26 00:09:52;;;;;;;31.37;16.67;;;2.40;99.90;;;;;;5122403;28;20435;-80
2022/02/26 00:12:19;;;;;;;30.70;16.00;;;2.40;99.90;;;;;;5119583;28;20541;-80
2022/02/26 00:14:46;;;;;;;31.07;16.03;;;2.60;99.90;;;;;;5120337;28;20500;-80
2022/02/26 00:17:13;;;;;;;34.80;16.37;;;2.40;99.90;;;;;;5122193;28;20484;-83
2022/02/26 00:19:47;;;;;;;28.23;15.83;;;2.30;99.90;;;;;;5121520;28;20513;-80
2022/02/26 00:22:15;;;;;;;27.93;15.50;;;2.30;99.90;;;;;;5121882;28;20811;-80
2022/02/26 00:24:42;;;;;;;38.78;20.25;;;2.30;99.90;;;;;;5121471;28;20475;-80
2022/02/26 00:27:14;;;;;;;35.67;17.33;;;2.40;99.90;;;;;;5124889;28;20218;-81
2022/02/26 00:29:41;;;;;;;38.93;18.37;;;2.50;99.90;;;;;;5127889;28;20472;-81
2022/02/26 00:32:16;;;;;;;26.73;15.73;;;2.50;99.90;;;;;;5129281;28;20472;-80
2022/02/26 00:34:43;;;;;;;33.60;16.07;;;2.40;99.90;;;;;;5128663;28;20416;-80
2022/02/26 00:37:10;;;;;;;30.97;16.67;;;2.20;99.90;;;;;;5122953;28;21024;-80
2022/02/26 00:39:39;;;;;;;29.13;15.90;;;2.20;99.90;;;;;;5123926;28;20457;-80
2022/02/26 00:42:09;;;;;;;28.20;15.73;;;2.10;99.90;;;;;;5123581;28;20408;-80
2022/02/26 00:44:39;;;;;;;34.40;15.37;;;2.20;99.90;;;;;;5103545;28;20464;-79
2022/02/26 00:47:12;;;;;;;28.10;16.47;;;2.20;99.90;;;;;;5122915;28;20463;-80
2022/02/26 00:49:50;;;;;;;37.40;16.37;;;2.20;99.90;;;;;;5123481;28;20443;-80
2022/02/26 00:52:23;;;;;;;32.03;16.97;;;2.10;99.90;;;;;;5126092;28;20449;-81
2022/02/26 00:54:51;;;;;;;28.70;16.23;;;2.00;99.90;;;;;;5125784;28;20924;-80
2022/02/26 00:57:18;;;;;;;24.27;16.13;;;1.90;99.90;;;;;;5127639;28;20451;-81
2022/02/26 00:59:50;;;;;;;29.17;15.83;;;1.90;99.90;;;;;;5126687;28;20467;-81
2022/02/26 01:02:20;;;;;;;28.67;15.83;;;1.80;99.90;;;;;;5127206;28;20437;-80
2022/02/26 01:04:50;;;;;;;30.13;16.30;;;1.70;99.90;;;;;;5108315;28;20463;-80
2022/02/26 01:07:23;;;;;;;30.07;17.00;;;1.70;99.90;;;;;;5126699;28;20531;-80
2022/02/26 01:09:51;;;;;;;29.73;16.87;;;1.80;99.90;;;;;;5125169;28;20447;-80
2022/02/26 01:12:22;;;;;;;31.57;17.13;;;1.60;99.90;;;;;;5123711;28;20457;-80
2022/02/26 01:14:57;;;;;;;38.77;18.37;;;1.60;99.90;;;;;;5127128;28;20441;-80
2022/02/26 01:17:27;;;;;;;31.00;18.53;;;1.60;99.90;;;;;;5124825;28;20452;-80
2022/02/26 01:19:57;;;;;;;29.37;17.93;;;1.60;99.90;;;;;;5122836;28;20465;-80
2022/02/26 01:22:30;;;;;;;34.83;18.53;;;1.60;99.90;;;;;;5122580;28;20437;-80
2022/02/26 01:25:02;;;;;;;28.50;17.77;;;1.60;99.90;;;;;;5124492;28;20429;-80
2022/02/26 01:27:30;;;;;;;33.43;17.50;;;1.60;99.90;;;;;;5124414;28;20449;-80
2022/02/26 01:30:10;;;;;;;32.53;17.20;;;1.60;99.90;;;;;;5123244;28;20440;-81
2022/02/26 01:32:36;;;;;;;31.47;17.87;;;1.70;99.90;;;;;;5123618;28;20428;-80
2022/02/26 01:35:13;;;;;;;40.83;18.17;;;1.80;99.90;;;;;;5121951;28;20441;-80
2022/02/26 01:37:42;;;;;;;42.10;19.70;;;1.80;99.90;;;;;;5122326;28;20436;-80
2022/02/26 01:40:10;;;;;;;40.60;19.37;;;1.80;99.90;;;;;;5121554;28;20221;-81
2022/02/26 01:42:39;;;;;;;32.63;18.20;;;1.80;99.90;;;;;;5121254;28;20500;-80
2022/02/26 01:45:14;;;;;;;34.10;18.37;;;1.80;99.90;;;;;;5121951;28;20441;-80
2022/02/26 01:47:41;;;;;;;32.20;18.63;;;1.90;99.90;;;;;;5121841;28;20471;-80
2022/02/26 01:50:23;;;;;;;30.73;18.77;;;1.90;99.90;;;;;;5121907;28;20429;-81
2022/02/26 01:52:50;;;;;;;30.43;18.53;;;1.80;99.90;;;;;;5122191;28;20433;-80
2022/02/26 01:55:19;;;;;;;35.47;19.00;;;1.90;99.90;;;;;;5124843;28;20465;-80
2022/02/26 01:57:46;;;;;;;33.60;18.50;;;1.80;99.90;;;;;;5123091;28;20443;-80
2022/02/26 02:00:17;;;;;;;38.30;18.10;;;1.90;99.90;;;;;;5121713;28;20440;-80
2022/02/26 02:02:47;;;;;;;39.10;23.20;;;1.90;99.90;;;;;;5104000;28;20424;-80
2022/02/26 02:05:22;;;;;;;37.33;19.33;;;2.00;99.90;;;;;;5121151;28;20204;-82
2022/02/26 02:07:50;;;;;;;34.17;18.80;;;2.00;99.90;;;;;;5122404;28;20439;-80
2022/02/26 02:10:20;;;;;;;31.63;17.10;;;2.10;99.90;;;;;;5124093;28;20443;-80
2022/02/26 02:12:50;;;;;;;27.57;18.17;;;2.10;99.90;;;;;;5126035;27;20549;-81
2022/02/26 02:15:40;;;;;;;32.00;17.67;;;1.90;99.90;;;;;;5121635;28;20477;-80
2022/02/26 02:18:12;;;;;;;33.17;18.43;;;1.90;99.90;;;;;;5121262;28;20457;-82
2022/02/26 02:20:47;;;;;;;30.97;17.33;;;1.80;99.90;;;;;;5120655;28;20437;-80
2022/02/26 02:23:16;;;;;;;30.67;18.30;;;1.80;99.90;;;;;;5125037;28;20441;-82
2022/02/26 02:25:43;;;;;;;31.63;18.67;;;1.70;99.90;;;;;;5118980;28;20448;-80
2022/02/26 02:28:11;;;;;;;26.23;17.33;;;1.60;99.90;;;;;;5102391;28;20494;-80
2022/02/26 02:30:42;;;;;;;36.57;18.37;;;1.60;99.90;;;;;;5120015;27;20441;-80
2022/02/26 02:33:11;;;;;;;34.93;17.93;;;1.60;99.90;;;;;;5122371;28;20445;-80
2022/02/26 02:35:44;;;;;;;32.70;17.37;;;1.60;99.90;;;;;;5120013;28;20460;-80
2022/02/26 02:38:13;;;;;;;34.80;17.90;;;1.60;99.90;;;;;;5122153;28;20445;-80
2022/02/26 02:40:43;;;;;;;35.97;18.37;;;1.60;99.90;;;;;;5122801;28;20900;-82
2022/02/26 02:43:17;;;;;;;31.20;17.10;;;1.60;99.90;;;;;;5120416;28;20970;-80
2022/02/26 02:45:48;;;;;;;33.27;18.20;;;1.60;99.90;;;;;;5126380;28;20455;-80
2022/02/26 02:48:17;;;;;;;38.37;18.10;;;1.70;99.90;;;;;;5122710;28;20428;-81
2022/02/26 02:50:46;;;;;;;37.40;17.20;;;1.70;99.90;;;;;;5121295;27;20444;-80
2022/02/26 02:53:16;;;;;;;32.40;18.03;;;1.70;99.90;;;;;;5121089;28;20432;-80
2022/02/26 02:55:45;;;;;;;33.30;17.50;;;1.70;99.90;;;;;;5125292;27;21067;-80
2022/02/26 02:58:13;;;;;;;35.47;18.03;;;1.80;99.90;;;;;;5125522;28;20520;-80
2022/02/26 03:00:41;;;;;;;31.67;18.23;;;1.70;99.90;;;;;;5102542;28;20447;-80
2022/02/26 03:03:11;;;;;;;32.23;17.53;;;1.70;99.90;;;;;;5103856;28;20455;-80
2022/02/26 03:05:39;;;;;;;30.50;17.63;;;1.70;99.90;;;;;;5124682;28;20436;-80
2022/02/26 03:08:07;;;;;;;33.30;18.37;;;1.60;99.90;;;;;;5125099;28;20483;-80
2022/02/26 03:10:40;;;;;;;33.63;18.37;;;1.50;99.90;;;;;;5127528;28;20416;-81
2022/02/26 03:13:11;;;;;;;38.67;17.93;;;1.40;99.90;;;;;;5110492;28;20445;-80
2022/02/26 03:15:40;;;;;;;27.23;17.53;;;1.20;99.90;;;;;;5127320;28;20475;-80
2022/02/26 03:18:11;;;;;;;30.63;17.03;;;1.20;99.90;;;;;;5126115;28;20457;-80
2022/02/26 03:20:38;;;;;;;36.73;18.63;;;1.30;99.90;;;;;;5127911;28;20460;-80
2022/02/26 03:23:06;;;;;;;29.27;17.10;;;1.40;99.90;;;;;;5126908;28;20433;-81
2022/02/26 03:25:33;;;;;;;38.47;19.23;;;1.40;99.90;;;;;;5127517;28;20447;-79
2022/02/26 03:28:00;;;;;;;27.90;18.17;;;1.40;99.90;;;;;;5124404;28;20437;-80
2022/02/26 03:30:29;;;;;;;37.80;18.50;;;1.30;99.90;;;;;;5125437;28;20428;-80
2022/02/26 03:32:56;;;;;;;31.27;18.50;;;1.30;99.90;;;;;;5124565;28;20448;-80
2022/02/26 03:35:28;;;;;;;35.97;17.43;;;1.30;99.90;;;;;;5107021;28;20455;-81
2022/02/26 03:37:55;;;;;;;31.03;18.13;;;1.20;99.90;;;;;;5125093;28;20807;-80
2022/02/26 03:40:26;;;;;;;30.97;17.77;;;1.10;99.90;;;;;;5124157;28;20449;-80
2022/02/26 03:42:54;;;;;;;41.23;19.73;;;1.20;99.90;;;;;;5125288;28;20816;-79
2022/02/26 03:45:24;;;;;;;30.20;17.30;;;1.20;99.90;;;;;;5128120;28;20501;-82
2022/02/26 03:48:00;;;;;;;30.00;18.63;;;1.20;99.90;;;;;;5124879;28;20576;-81
2022/02/26 03:50:27;;;;;;;32.33;17.83;;;1.20;99.90;;;;;;5122837;28;20508;-81
2022/02/26 03:53:03;;;;;;;32.77;18.20;;;1.10;99.90;;;;;;5124558;28;20444;-79
2022/02/26 03:55:30;;;;;;;35.87;18.47;;;1.10;99.90;;;;;;5123209;28;20444;-80
2022/02/26 03:58:04;;;;;;;36.03;18.73;;;1.20;99.90;;;;;;5122652;28;20459;-81
2022/02/26 04:00:31;;;;;;;32.17;18.23;;;1.10;99.90;;;;;;5124141;28;20447;-80
2022/02/26 04:03:00;;;;;;;34.67;18.83;;;1.10;99.90;;;;;;5123201;28;20437;-80
2022/02/26 04:05:32;;;;;;;30.50;18.33;;;1.00;99.90;;;;;;5123641;28;20449;-86
2022/02/26 04:08:07;;;;;;;34.17;18.53;;;1.00;99.90;;;;;;5129542;28;20444;-83
2022/02/26 04:10:38;;;;;;;31.23;17.90;;;1.00;99.90;;;;;;5124915;28;20803;-83
2022/02/26 04:13:05;;;;;;;35.30;18.33;;;1.00;99.90;;;;;;5122998;28;20456;-83
2022/02/26 04:15:39;;;;;;;34.10;18.77;;;1.10;99.90;;;;;;5125152;28;20812;-81
2022/02/26 04:18:09;;;;;;;34.23;17.43;;;1.10;99.90;;;;;;5124464;28;20460;-81
2022/02/26 04:20:39;;;;;;;44.93;18.93;;;1.10;99.90;;;;;;5123811;28;20445;-80
2022/02/26 04:23:15;;;;;;;28.67;18.33;;;1.10;99.90;;;;;;5124836;28;20935;-79
2022/02/26 04:25:42;;;;;;;33.97;18.40;;;1.10;99.90;;;;;;5121895;28;20453;-80
2022/02/26 04:28:09;;;;;;;33.63;18.70;;;1.00;99.90;;;;;;5104355;28;20455;-80
2022/02/26 04:30:39;;;;;;;32.23;18.80;;;1.00;99.90;;;;;;5121063;28;20437;-80
2022/02/26 04:33:18;;;;;;;33.07;18.50;;;1.10;99.90;;;;;;5105319;28;20844;-82
2022/02/26 04:35:55;;;;;;;32.60;18.47;;;1.00;99.90;;;;;;5122639;28;20489;-80
2022/02/26 04:38:22;;;;;;;41.40;20.10;;;1.00;99.90;;;;;;5107425;28;20480;-81
2022/02/26 04:41:05;;;;;;;36.43;19.23;;;1.10;99.90;;;;;;5121805;28;20413;-80
2022/02/26 04:43:34;;;;;;;29.80;19.10;;;1.10;99.90;;;;;;5124739;28;20455;-79
2022/02/26 04:46:00;;;;;;;29.67;19.57;;;1.10;99.90;;;;;;5123964;28;20453;-81
2022/02/26 04:48:36;;;;;;;35.97;19.90;;;1.00;99.90;;;;;;5124782;28;20452;-82
2022/02/26 04:51:06;;;;;;;35.13;19.83;;;1.10;99.90;;;;;;5121443;28;20449;-80
2022/02/26 04:53:33;;;;;;;34.23;19.80;;;1.00;99.90;;;;;;5123959;28;20435;-79
2022/02/26 04:56:02;;;;;;;39.35;25.08;;;1.00;99.90;;;;;;5122967;28;20440;-82
2022/02/26 04:58:42;;;;;;;43.00;22.17;;;0.90;99.90;;;;;;5123611;28;20203;-79
2022/02/26 05:01:09;;;;;;;35.37;20.53;;;0.90;99.90;;;;;;5123935;28;20433;-79
2022/02/26 05:03:37;;;;;;;35.97;19.33;;;0.90;99.90;;;;;;5122199;28;20498;-81
2022/02/26 05:06:06;;;;;;;40.17;20.03;;;0.90;99.90;;;;;;5121134;28;20803;-82
2022/02/26 05:08:33;;;;;;;34.40;19.17;;;0.90;99.90;;;;;;5123084;28;20536;-80
2022/02/26 05:11:17;;;;;;;42.80;20.43;;;0.90;99.90;;;;;;5125399;28;20449;-80
2022/02/26 05:13:47;;;;;;;38.20;19.27;;;1.00;99.90;;;;;;5125179;28;20531;-80
2022/02/26 05:16:14;;;;;;;42.43;19.63;;;0.90;99.90;;;;;;5107017;28;20444;-83
2022/02/26 05:18:47;;;;;;;36.93;20.07;;;1.00;99.90;;;;;;5123282;28;20959;-82
2022/02/26 05:21:30;;;;;;;41.73;20.53;;;0.90;99.90;;;;;;5127573;28;20441;-81
2022/02/26 05:23:57;;;;;;;30.67;19.17;;;0.90;99.90;;;;;;5122471;28;20432;-80
2022/02/26 05:26:26;;;;;;;33.57;19.67;;;0.90;99.90;;;;;;5122818;28;20761;-80
2022/02/26 05:28:59;;;;;;;37.33;20.27;;;1.00;99.90;;;;;;5120793;28;20506;-82
2022/02/26 05:31:26;;;;;;;39.33;20.97;;;1.00;99.90;;;;;;5122718;28;20429;-82
2022/02/26 05:34:02;;;;;;;36.00;21.43;;;1.00;99.90;;;;;;5102867;28;20527;-80
2022/02/26 05:36:33;;;;;;;37.23;22.00;;;1.10;99.90;;;;;;5124177;28;20553;-82
2022/02/26 05:39:00;;;;;;;32.37;20.77;;;1.20;99.90;;;;;;5123009;28;20463;-81
2022/02/26 05:41:36;;;;;;;41.73;20.60;;;1.10;99.90;;;;;;5119292;28;20447;-80
2022/02/26 05:44:04;;;;;;;36.53;20.03;;;1.10;99.90;;;;;;5120707;28;20451;-81
2022/02/26 05:46:33;;;;;;;43.50;21.03;;;1.10;99.90;;;;;;5105042;28;20468;-80
2022/02/26 05:49:07;;;;;;;42.93;21.60;;;1.10;99.90;;;;;;5123386;28;20433;-82
2022/02/26 05:51:36;;;;;;;50.50;21.80;;;1.10;99.90;;;;;;5121668;28;20449;-81
2022/02/26 05:54:04;;;;;;;42.07;20.87;;;1.10;99.90;;;;;;5122413;28;20950;-80
2022/02/26 05:56:35;;;;;;;42.43;20.43;;;1.00;99.90;;;;;;5103987;28;20556;-80
2022/02/26 05:59:02;;;;;;;35.50;20.43;;;1.10;99.90;;;;;;5122267;28;20437;-80
2022/02/26 06:01:31;;;;;;;41.63;21.23;;;1.10;99.90;;;;;;5118222;28;20807;-80
2022/02/26 06:04:00;;;;;;;39.30;20.20;;;1.00;99.90;;;;;;5099888;28;20923;-79
2022/02/26 06:06:31;;;;;;;45.57;20.97;;;1.10;99.90;;;;;;5099536;28;20520;-80
2022/02/26 06:09:00;;;;;;;40.17;22.75;;;1.10;99.90;;;;;;5101824;28;20426;-81
2022/02/26 06:11:34;;;;;;;49.27;21.67;;;1.10;99.90;;;;;;5102678;28;20250;-80
2022/02/26 06:14:01;;;;;;;37.67;20.43;;;1.10;99.90;;;;;;5103250;28;20494;-82
2022/02/26 06:16:28;;;;;;;37.07;20.33;;;1.00;99.90;;;;;;5100977;28;21079;-85
2022/02/26 06:19:01;;;;;;;35.60;18.97;;;1.00;99.90;;;;;;5100577;28;20442;-80
2022/02/26 06:21:31;;;;;;;41.80;19.97;;;1.10;99.90;;;;;;5101183;28;20421;-80
2022/02/26 06:24:01;;;;;;;38.53;20.03;;;1.00;99.90;;;;;;5084169;28;20451;-80
2022/02/26 06:26:28;;;;;;;39.43;20.07;;;1.00;99.90;;;;;;5098839;28;20446;-80
2022/02/26 06:29:01;;;;;;;44.23;19.93;;;0.90;99.90;;;;;;5102161;28;20458;-80
2022/02/26 06:31:28;;;;;;;37.53;19.77;;;0.90;99.90;;;;;;5103991;28;20904;-82
2022/02/26 06:33:57;;;;;;;38.53;21.60;;;0.90;99.90;;;;;;5104912;28;20914;-79
2022/02/26 06:36:24;;;;;;;36.03;21.17;;;1.00;99.90;;;;;;5106471;28;20224;-80
2022/02/26 06:38:52;;;;;;;37.93;21.47;;;1.00;99.90;;;;;;5086676;28;20433;-80
2022/02/26 06:41:25;;;;;;;42.13;20.70;;;1.10;99.90;;;;;;5106084;28;20442;-80
2022/02/26 06:43:52;;;;;;;41.87;21.50;;;1.00;99.90;;;;;;5105917;28;20438;-80
2022/02/26 06:46:19;;;;;;;38.67;20.73;;;1.10;99.90;;;;;;5105758;28;20449;-81
2022/02/26 06:48:47;;;;;;;38.90;21.13;;;1.10;99.90;;;;;;5104490;28;20448;-78
2022/02/26 06:51:14;;;;;;;43.03;21.00;;;1.10;99.90;;;;;;5104096;28;20428;-82
2022/02/26 06:53:42;;;;;;;39.13;20.50;;;1.10;99.90;;;;;;5085358;28;20514;-81
2022/02/26 06:56:18;;;;;;;46.43;21.97;;;1.10;99.90;;;;;;5104784;28;20808;-80
2022/02/26 06:58:53;;;;;;;45.13;21.37;;;1.10;99.90;;;;;;5087237;28;20488;-81
2022/02/26 07:01:25;;;;;;;45.63;21.50;;;1.10;99.90;;;;;;5106008;28;20421;-80
2022/02/26 07:03:53;;;;;;;39.83;21.20;;;1.10;99.90;;;;;;5104732;28;20446;-81
2022/02/26 07:06:27;;;;;;;40.07;20.13;;;1.10;99.90;;;;;;5104183;28;20437;-79
2022/02/26 07:08:55;;;;;;;41.10;21.57;;;1.20;99.90;;;;;;5103055;28;20440;-82
2022/02/26 07:11:30;;;;;;;46.03;22.67;;;1.30;99.90;;;;;;5101211;28;20442;-80
2022/02/26 07:13:58;;;;;;;42.20;22.70;;;1.40;99.90;;;;;;5106032;28;20461;-80
2022/02/26 07:16:26;;;;;;;40.67;22.70;;;1.30;99.90;;;;;;5102143;28;20541;-80
2022/02/26 07:18:58;;;;;;;41.83;21.70;;;1.20;99.90;;;;;;5102609;28;20877;-81
2022/02/26 07:21:25;;;;;;;39.67;21.97;;;1.10;99.90;;;;;;5101649;28;20434;-82
2022/02/26 07:23:53;;;;;;;46.70;22.73;;;1.20;99.90;;;;;;5102431;28;20434;-78
2022/02/26 07:26:30;;;;;;;45.40;23.40;;;1.30;99.90;;;;;;5101738;28;20449;-80
2022/02/26 07:29:03;;;;;;;44.03;22.67;;;1.30;99.90;;;;;;5101334;28;20453;-79
2022/02/26 07:31:30;;;;;;;43.23;23.77;;;1.30;99.90;;;;;;5101096;28;20438;-78
2022/02/26 07:33:57;;;;;;;47.77;23.37;;;1.40;99.90;;;;;;5101528;28;20442;-78
2022/02/26 07:36:24;;;;;;;37.00;24.17;;;1.40;99.90;;;;;;5102318;28;20436;-78
2022/02/26 07:38:51;;;;;;;45.33;23.70;;;1.40;99.90;;;;;;5102686;28;20478;-79
2022/02/26 07:41:18;;;;;;;47.87;23.97;;;1.50;99.90;;;;;;5101891;28;20445;-79
2022/02/26 07:43:47;;;;;;;43.40;23.67;;;1.50;99.90;;;;;;5102829;28;20437;-79
2022/02/26 07:46:14;;;;;;;45.40;24.20;;;1.60;99.90;;;;;;5103869;28;20458;-79
2022/02/26 07:48:42;;;;;;;53.70;30.85;;;1.70;99.90;;;;;;5103832;28;20444;-78
2022/02/26 07:51:11;;;;;;;49.40;26.30;;;1.80;99.90;;;;;;5102477;28;20190;-79
2022/02/26 07:53:38;;;;;;;46.97;25.60;;;1.80;99.90;;;;;;5104569;28;20905;-79
2022/02/26 07:56:06;;;;;;;36.13;24.33;;;1.90;99.90;;;;;;5085567;28;20430;-79
2022/02/26 07:58:33;;;;;;;44.97;26.47;;;1.90;99.90;;;;;;5102485;28;20480;-78
2022/02/26 08:01:08;;;;;;;42.87;25.07;;;2.00;99.90;;;;;;5102807;28;20434;-80
2022/02/26 08:03:34;;;;;;;44.73;25.33;;;2.00;99.90;;;;;;5103159;28;20446;-81
2022/02/26 08:06:02;;;;;;;43.83;26.37;;;2.00;99.90;;;;;;5104418;28;20437;-80
2022/02/26 08:08:29;;;;;;;43.43;25.33;;;2.10;99.90;;;;;;5102780;28;20442;-80
2022/02/26 08:10:56;;;;;;;42.40;24.23;;;2.30;99.90;;;;;;5107410;28;20452;-80
2022/02/26 08:13:25;;;;;;;55.72;31.08;;;2.20;99.90;;;;;;5102984;28;20928;-80
2022/02/26 08:15:53;;;;;;;49.03;26.00;;;2.30;99.90;;;;;;5104442;28;20619;-80
2022/02/26 08:18:28;;;;;;;41.53;25.63;;;2.30;99.90;;;;;;5104458;28;20488;-82
2022/02/26 08:21:05;;;;;;;48.50;25.97;;;2.30;99.90;;;;;;5121380;28;20519;-85
2022/02/26 08:23:35;;;;;;;41.30;24.90;;;2.40;99.90;;;;;;5104191;28;20510;-80
2022/02/26 08:26:05;;;;;;;48.17;25.67;;;2.40;99.90;;;;;;5124883;28;20463;-80
2022/02/26 08:28:40;;;;;;;40.90;24.73;;;2.50;99.90;;;;;;5124025;28;20543;-81
2022/02/26 08:31:06;;;;;;;42.83;24.73;;;2.50;99.90;;;;;;5127197;28;20460;-81
2022/02/26 08:33:43;;;;;;;42.60;25.67;;;2.60;99.90;;;;;;5124917;28;20455;-82
2022/02/26 08:36:11;;;;;;;45.63;25.80;;;2.50;99.90;;;;;;5125955;28;20440;-80
2022/02/26 08:38:38;;;;;;;44.30;28.70;;;2.60;99.90;;;;;;5127616;28;20448;-81
2022/02/26 08:41:08;;;;;;;43.30;24.97;;;2.70;99.90;;;;;;5127665;28;20224;-80
2022/02/26 08:43:46;;;;;;;57.50;40.77;;;2.80;99.90;;;;;;5128170;28;20444;-81
2022/02/26 08:46:23;;;;;;;43.67;27.07;;;2.90;99.90;;;;;;5128039;28;20457;-80
2022/02/26 08:48:57;;;;;;;43.43;25.03;;;3.00;99.90;;;;;;5124785;28;20453;-79
2022/02/26 08:51:27;;;;;;;44.57;24.70;;;3.10;99.90;;;;;;5123182;28;20456;-79
2022/02/26 08:53:54;;;;;;;44.70;24.10;;;3.20;99.90;;;;;;5126263;28;20417;-79
2022/02/26 08:56:23;;;;;;;42.97;24.30;;;3.30;99.90;;;;;;5127719;28;20461;-79
2022/02/26 08:58:54;;;;;;;41.53;23.77;;;3.50;99.90;;;;;;5127466;28;20488;-79
2022/02/26 09:01:23;;;;;;;42.70;23.70;;;3.60;99.90;;;;;;5125219;28;20441;-79
2022/02/26 09:03:50;;;;;;;47.47;23.57;;;3.60;99.90;;;;;;5125136;28;20468;-78
2022/02/26 09:06:18;;;;;;;35.60;21.80;;;3.80;99.90;;;;;;5123460;28;20478;-79
2022/02/26 09:08:45;;;;;;;35.53;21.20;;;3.90;99.90;;;;;;5127997;28;20935;-81
2022/02/26 09:11:26;;;;;;;34.50;19.70;;;3.90;99.90;;;;;;5127393;28;20444;-78
2022/02/26 09:13:54;;;;;;;36.20;20.93;;;4.00;99.90;;;;;;5125343;28;20504;-78
2022/02/26 09:16:21;;;;;;;37.70;19.17;;;4.10;99.90;;;;;;5129824;28;20443;-79
2022/02/26 09:18:48;;;;;;;32.47;18.70;;;4.20;99.90;;;;;;5127092;28;20496;-80
2022/02/26 09:21:15;;;;;;;42.97;19.23;;;4.30;99.90;;;;;;5128209;28;20444;-79
2022/02/26 09:23:45;;;;;;;31.83;17.97;;;4.40;99.90;;;;;;5125271;28;20437;-79
2022/02/26 09:26:12;;;;;;;37.23;16.67;;;4.50;99.90;;;;;;5125103;28;20449;-79
2022/02/26 09:28:40;;;;;;;36.15;18.58;;;4.50;99.90;;;;;;5119944;28;20420;-79
2022/02/26 09:31:07;;;;;;;31.53;15.87;;;4.70;99.90;;;;;;5118167;28;20644;-79
2022/02/26 09:33:34;;;;;;;33.07;14.53;;;4.80;99.90;;;;;;5122724;28;20519;-79
2022/02/26 09:36:04;;;;;;;28.03;14.43;;;4.90;99.90;;;;;;5119677;28;20176;-78
2022/02/26 09:38:31;;;;;;;30.53;13.97;;;5.00;99.90;;;;;;5119937;28;20204;-80
2022/02/26 09:41:04;;;;;;;27.67;12.87;;;5.10;99.90;;;;;;5126492;28;20212;-80
2022/02/26 09:43:32;;;;;;;24.43;12.00;;;5.10;99.90;;;;;;5123326;28;20603;-78
2022/02/26 09:46:19;;;;;;;28.73;12.30;;;5.10;99.90;;;;;;5126821;28;20219;-85
2022/02/26 09:54:29;;;;;;;25.60;9.97;;;5.40;99.90;;;;;;5092865;28;20197;-84
2022/02/26 09:57:04;;;;;;;24.53;10.70;;;5.60;99.90;;;;;;5127744;28;20188;-79
2022/02/26 09:59:31;;;;;;;23.77;9.20;;;5.70;99.90;;;;;;5124881;28;20216;-84
2022/02/26 10:02:03;;;;;;;20.70;8.43;;;5.70;99.90;;;;;;5128318;28;20242;-78
2022/02/26 10:04:30;;;;;;;24.10;8.77;;;5.80;99.90;;;;;;5126342;28;20200;-77
2022/02/26 10:07:17;;;;;;;20.20;7.73;;;5.90;99.90;;;;;;5124877;28;20196;-80
2022/02/26 10:09:46;;;;;;;18.60;6.80;;;6.20;99.90;;;;;;5128642;28;20227;-84
2022/02/26 10:12:22;;;;;;;16.77;7.10;;;6.30;99.90;;;;;;5126210;28;20201;-78
2022/02/26 10:14:50;;;;;;;19.30;6.53;;;6.40;99.90;;;;;;5121005;28;20184;-80
2022/02/26 10:17:26;;;;;;;20.30;8.20;;;6.40;99.90;;;;;;5117628;28;20850;-78
2022/02/26 10:20:01;;;;;;;19.23;7.87;;;6.50;99.90;;;;;;5118791;28;20216;-76
2022/02/26 10:22:31;;;;;;;22.23;7.43;;;6.50;99.90;;;;;;5119499;28;20219;-78
2022/02/26 10:25:05;;;;;;;22.93;8.03;;;6.60;99.90;;;;;;5122304;28;20188;-76
2022/02/26 10:27:33;;;;;;;20.13;8.10;;;6.60;99.90;;;;;;5120948;28;20200;-76
2022/02/26 10:30:03;;;;;;;19.47;7.87;;;6.70;99.90;;;;;;5103419;28;20685;-76
2022/02/26 10:32:39;;;;;;;26.77;8.70;;;6.80;99.90;;;;;;5119529;28;20188;-76
2022/02/26 10:35:12;;;;;;;23.07;7.97;;;6.80;99.90;;;;;;5120484;28;20204;-76
2022/02/26 10:37:39;;;;;;;25.77;7.63;;;6.70;99.90;;;;;;5121183;28;20189;-76
2022/02/26 10:40:07;;;;;;;23.17;7.40;;;6.70;99.90;;;;;;5122138;28;20304;-76
2022/02/26 10:42:36;;;;;;;23.02;9.32;;;6.70;99.90;;;;;;5120003;28;20783;-77
2022/02/26 10:45:13;;;;;;;22.23;7.77;;;6.90;99.90;;;;;;5125355;28;20192;-76
2022/02/26 10:47:42;;;;;;;19.43;7.83;;;6.90;99.90;;;;;;5121805;28;20673;-76
2022/02/26 10:50:19;;;;;;;18.83;7.43;;;7.00;99.90;;;;;;5122224;28;20169;-76
2022/02/26 10:53:18;;;;;;;21.23;7.40;;;7.10;99.90;;;;;;5121192;28;20193;-76
2022/02/26 10:55:57;;;;;;;19.77;6.87;;;7.00;99.90;;;;;;5119401;28;20184;-76
2022/02/26 10:58:36;;;;;;;18.93;7.13;;;7.10;99.90;;;;;;5125977;28;20206;-74
2022/02/26 11:01:07;;;;;;;17.03;7.27;;;7.20;99.90;;;;;;5127629;28;20193;-75
2022/02/26 11:03:38;;;;;;;16.60;6.53;;;7.20;99.90;;;;;;5129352;28;20173;-74
2022/02/26 11:06:06;;;;;;;16.70;7.03;;;7.30;99.90;;;;;;5127362;28;20208;-77
2022/02/26 11:08:35;;;;;;;21.17;7.23;;;7.50;99.90;;;;;;5128316;28;20188;-77
2022/02/26 11:11:05;;;;;;;21.60;7.00;;;7.60;99.90;;;;;;5126672;28;20189;-78
2022/02/26 11:13:34;;;;;;;24.33;7.27;;;7.60;99.90;;;;;;5124352;28;20288;-77
2022/02/26 11:16:02;;;;;;;21.90;8.27;;;7.60;99.90;;;;;;5127141;28;20195;-77
2022/02/26 11:18:41;;;;;;;22.73;8.47;;;7.80;99.90;;;;;;5132583;28;20208;-78
2022/02/26 11:21:11;;;;;;;21.80;8.83;;;7.90;99.90;;;;;;5133013;28;20189;-77
2022/02/26 11:23:39;;;;;;;23.23;9.30;;;7.80;99.90;;;;;;5132360;28;20208;-78
2022/02/26 11:26:16;;;;;;;26.23;9.93;;;7.80;99.90;;;;;;5133771;28;20176;-77
2022/02/26 11:28:49;;;;;;;29.83;10.63;;;7.90;99.90;;;;;;5127804;28;20192;-75
2022/02/26 11:31:18;;;;;;;20.73;7.87;;;7.90;99.90;;;;;;5124499;28;20192;-76
2022/02/26 11:33:46;;;;;;;23.63;8.90;;;8.00;99.90;;;;;;5128999;28;20181;-76
2022/02/26 11:36:13;;;;;;;26.00;9.10;;;8.10;99.90;;;;;;5131161;28;20277;-76
2022/02/26 11:38:41;;;;;;;18.93;8.80;;;8.10;99.90;;;;;;5118180;28;20239;-76
2022/02/26 11:41:26;;;;;;;20.20;6.17;;;8.10;99.90;;;;;;5128189;28;20208;-76
2022/02/26 11:43:56;;;;;;;15.67;5.70;;;8.20;99.90;;;;;;5127655;28;20192;-76
2022/02/26 11:46:28;;;;;;;14.73;4.50;;;8.10;99.90;;;;;;5125151;28;20228;-76
2022/02/26 11:48:56;;;;;;;17.40;7.03;;;7.80;99.90;;;;;;5128982;28;20207;-76
2022/02/26 11:51:33;;;;;;;20.40;7.17;;;7.80;99.90;;;;;;5111155;28;20185;-77
2022/02/26 11:54:00;;;;;;;19.77;6.83;;;7.80;99.90;;;;;;5119448;28;20187;-76
2022/02/26 11:56:41;;;;;;;22.08;8.23;;;7.80;99.90;;;;;;5107339;28;20429;-76
2022/02/26 11:59:10;;;;;;;15.57;6.93;;;8.00;99.90;;;;;;5107414;28;20196;-76
2022/02/26 12:01:39;;;;;;;15.67;6.57;;;8.00;99.90;;;;;;5104075;28;20197;-76
2022/02/26 12:04:10;;;;;;;14.43;6.20;;;8.00;99.90;;;;;;5106565;28;20205;-76
2022/02/26 12:06:40;;;;;;;20.40;6.70;;;7.80;99.90;;;;;;5103469;28;20177;-76
2022/02/26 12:09:12;;;;;;;15.00;6.97;;;7.80;99.90;;;;;;5105828;28;20239;-76
2022/02/26 12:11:45;;;;;;;15.63;7.10;;;8.00;99.90;;;;;;5104605;28;20196;-76
2022/02/26 12:14:24;;;;;;;16.97;6.93;;;8.00;99.90;;;;;;5105602;28;20201;-76
2022/02/26 12:17:02;;;;;;;18.63;5.80;;;8.20;99.90;;;;;;5103066;28;20258;-76
2022/02/26 12:19:46;;;;;;;13.03;5.40;;;8.20;99.90;;;;;;5105462;28;20580;-76
2022/02/26 12:22:13;;;;;;;16.08;6.82;;;8.30;99.90;;;;;;5103677;28;20454;-76
2022/02/26 12:24:48;;;;;;;15.97;6.80;;;8.50;99.90;;;;;;5123807;28;20224;-76
2022/02/26 12:27:15;;;;;;;14.00;5.83;;;8.50;99.90;;;;;;5125180;28;20211;-76
2022/02/26 12:29:54;;;;;;;15.37;5.13;;;8.50;99.90;;;;;;5127621;28;20200;-75
2022/02/26 12:32:24;;;;;;;12.10;5.27;;;8.60;99.90;;;;;;5128364;28;20208;-76
2022/02/26 12:35:02;;;;;;;15.10;4.83;;;8.40;99.90;;;;;;5128309;28;20200;-76
2022/02/26 12:37:32;;;;;;;14.07;4.90;;;8.50;99.90;;;;;;5127002;28;20199;-76
2022/02/26 12:40:02;;;;;;;17.63;4.57;;;8.60;99.90;;;;;;5123911;28;20239;-76
2022/02/26 12:42:32;;;;;;;11.37;5.70;;;8.60;99.90;;;;;;5126481;28;20246;-76
2022/02/26 12:48:09;;;;;;;13.50;5.37;;;8.70;99.90;;;;;;5125908;27;20521;-77
2022/02/26 12:50:36;;;;;;;15.67;5.73;;;8.70;99.90;;;;;;5123918;28;20216;-78
2022/02/26 12:53:03;;;;;;;18.40;5.23;;;8.60;99.90;;;;;;5121976;28;20212;-77
2022/02/26 12:55:32;;;;;;;13.17;4.13;;;8.50;99.90;;;;;;5122416;28;20184;-76
2022/02/26 12:58:00;;;;;;;9.53;3.60;;;8.70;99.90;;;;;;5104608;28;20206;-77
2022/02/26 13:00:28;;;;;;;12.77;4.03;;;8.80;99.90;;;;;;5097531;28;20717;-77
2022/02/26 13:02:59;;;;;;;10.90;4.20;;;8.90;99.90;;;;;;5097704;28;20212;-78
2022/02/26 13:05:29;;;;;;;12.17;3.93;;;8.90;99.90;;;;;;5102932;28;20207;-77